Time;durP1;ratioP1;P1;durP2;ratioP2;P2;SDS_P1;SDS_P2;PMS_P1;PMS_P2;Temp;Humidity;BMP_temperature;BMP_pressure;BME280_temperature;BME280_humidity;BME280_pressure;Samples;Min_cycle;Max_cycle;Signal;HPM_P1;HPM_P2
2023/04/24 00:00:23;;;;;;;0.30;0.30;;;10.90;99.90;;;;;;5021603;28;20077;-81
2023/04/24 00:02:50;;;;;;;0.65;0.30;;;10.90;99.90;;;;;;5024361;28;20037;-79
2023/04/24 00:05:17;;;;;;;0.40;0.40;;;10.90;99.90;;;;;;5013510;28;20325;-78
2023/04/24 00:07:44;;;;;;;0.20;0.20;;;10.90;99.90;;;;;;5024674;28;20022;-78
2023/04/24 00:10:10;;;;;;;0.30;0.30;;;10.90;99.90;;;;;;5006939;28;20037;-79
2023/04/24 00:12:36;;;;;;;0.15;0.15;;;10.90;99.90;;;;;;5024461;28;20032;-79
2023/04/24 00:15:02;;;;;;;0.20;0.17;;;10.90;99.90;;;;;;5024135;28;20060;-78
2023/04/24 00:17:28;;;;;;;0.30;0.25;;;10.90;99.90;;;;;;5023941;28;20026;-80
2023/04/24 00:20:00;;;;;;;0.20;0.20;;;10.80;99.90;;;;;;5024224;28;20451;-80
2023/04/24 00:22:27;;;;;;;0.20;0.20;;;10.80;99.90;;;;;;5008585;28;20134;-79
2023/04/24 00:24:53;;;;;;;0.17;0.17;;;10.70;99.90;;;;;;5024462;28;20022;-79
2023/04/24 00:27:19;;;;;;;0.20;0.20;;;10.70;99.90;;;;;;5022936;28;20026;-78
2023/04/24 00:29:44;;;;;;;0.40;0.30;;;10.70;99.90;;;;;;5022649;28;20024;-81
2023/04/24 00:32:10;;;;;;;0.43;0.30;;;10.70;99.90;;;;;;5028967;28;20032;-78
2023/04/24 00:34:36;;;;;;;0.75;0.20;;;10.70;99.90;;;;;;5020460;28;20037;-78
2023/04/24 00:37:01;;;;;;;0.52;0.38;;;10.70;99.90;;;;;;5035138;28;20033;-79
2023/04/24 00:39:27;;;;;;;0.30;0.30;;;10.70;99.90;;;;;;5023861;28;20018;-79
2023/04/24 00:41:53;;;;;;;0.20;0.20;;;10.70;99.90;;;;;;5023353;28;20065;-79
2023/04/24 00:44:19;;;;;;;0.20;0.20;;;10.70;99.90;;;;;;5034478;28;20033;-78
2023/04/24 00:46:46;;;;;;;1.02;0.32;;;10.70;99.90;;;;;;5036422;28;20034;-78
2023/04/24 00:49:13;;;;;;;0.20;0.20;;;10.70;99.90;;;;;;5028476;28;20468;-81
2023/04/24 00:51:40;;;;;;;0.75;0.40;;;10.70;99.90;;;;;;5023457;28;20053;-79
2023/04/24 00:54:06;;;;;;;0.20;0.20;;;10.70;99.90;;;;;;5022143;28;20030;-79
2023/04/24 00:56:32;;;;;;;0.25;0.20;;;10.70;99.90;;;;;;5020469;28;20033;-79
2023/04/24 00:58:58;;;;;;;0.25;0.20;;;10.60;99.90;;;;;;5023355;28;20132;-80
2023/04/24 01:01:24;;;;;;;0.30;0.30;;;10.70;99.90;;;;;;5014167;28;20028;-79
2023/04/24 01:03:51;;;;;;;0.25;0.20;;;10.60;99.90;;;;;;5024176;28;20046;-80
2023/04/24 01:06:18;;;;;;;0.25;0.25;;;10.60;99.90;;;;;;5027731;28;20021;-77
2023/04/24 01:08:45;;;;;;;0.20;0.17;;;10.60;99.90;;;;;;5037663;28;20040;-78
2023/04/24 01:11:11;;;;;;;0.32;0.32;;;10.60;99.90;;;;;;5032879;28;20049;-78
2023/04/24 01:13:36;;;;;;;0.28;0.28;;;10.50;99.90;;;;;;5037269;28;20108;-78
2023/04/24 01:16:05;;;;;;;0.30;0.30;;;10.50;99.90;;;;;;5036351;28;20082;-78
2023/04/24 01:18:32;;;;;;;0.38;0.38;;;10.50;99.90;;;;;;5037182;28;20025;-78
2023/04/24 01:20:59;;;;;;;0.10;0.10;;;10.50;99.90;;;;;;5037114;28;20049;-77
2023/04/24 01:23:26;;;;;;;0.60;0.32;;;10.50;99.90;;;;;;5010546;28;20030;-80
2023/04/24 01:25:52;;;;;;;0.32;0.22;;;10.50;99.90;;;;;;5022539;28;20022;-80
2023/04/24 01:28:18;;;;;;;0.20;0.20;;;10.50;99.90;;;;;;5023212;28;20056;-79
2023/04/24 01:30:44;;;;;;;0.10;0.10;;;10.50;99.90;;;;;;5014929;28;20026;-79
2023/04/24 01:33:10;;;;;;;0.60;0.20;;;10.50;99.90;;;;;;5023292;28;20017;-79
2023/04/24 01:35:37;;;;;;;0.10;0.10;;;10.50;99.90;;;;;;5023715;28;20035;-78
2023/04/24 01:38:03;;;;;;;0.20;0.20;;;10.50;99.90;;;;;;5023494;28;20022;-80
2023/04/24 01:40:29;;;;;;;0.22;0.20;;;10.50;99.90;;;;;;5011525;28;20022;-80
2023/04/24 01:42:55;;;;;;;0.17;0.17;;;10.40;99.90;;;;;;5023066;28;20036;-80
2023/04/24 01:45:20;;;;;;;0.25;0.25;;;10.40;99.90;;;;;;5022718;28;20026;-80
2023/04/24 01:47:47;;;;;;;0.43;0.25;;;10.40;99.90;;;;;;5023456;28;20049;-80
2023/04/24 01:50:15;;;;;;;2.25;0.30;;;10.40;99.90;;;;;;5022630;28;20038;-80
2023/04/24 01:52:41;;;;;;;0.17;0.17;;;10.40;99.90;;;;;;5019543;28;20042;-79
2023/04/24 01:55:08;;;;;;;0.20;0.20;;;10.40;99.90;;;;;;5034454;28;20014;-78
2023/04/24 01:57:34;;;;;;;0.20;0.20;;;10.40;99.90;;;;;;5031111;28;20335;-80
2023/04/24 02:00:00;;;;;;;0.10;0.10;;;10.40;99.90;;;;;;5023377;28;20509;-80
2023/04/24 02:02:29;;;;;;;0.20;0.20;;;10.40;99.90;;;;;;5022756;28;20026;-81
2023/04/24 02:04:55;;;;;;;0.30;0.30;;;10.40;99.90;;;;;;5022853;28;20014;-79
2023/04/24 02:07:21;;;;;;;0.20;0.20;;;10.30;99.90;;;;;;5023731;28;20201;-80
2023/04/24 02:09:47;;;;;;;0.32;0.13;;;10.30;99.90;;;;;;5023534;28;20089;-79
2023/04/24 02:12:13;;;;;;;0.28;0.20;;;10.30;99.90;;;;;;5023414;28;20022;-80
2023/04/24 02:14:44;;;;;;;0.20;0.20;;;10.30;99.90;;;;;;5026880;28;20030;-80
2023/04/24 02:17:12;;;;;;;0.10;0.10;;;10.30;99.90;;;;;;5017731;28;20091;-79
2023/04/24 02:19:37;;;;;;;0.20;0.10;;;10.30;99.90;;;;;;5023151;28;20061;-80
2023/04/24 02:22:03;;;;;;;0.20;0.20;;;10.30;99.90;;;;;;5021469;28;20045;-79
2023/04/24 02:24:28;;;;;;;0.20;0.20;;;10.30;99.90;;;;;;5021117;28;20014;-81
2023/04/24 02:26:54;;;;;;;0.10;0.10;;;10.30;99.90;;;;;;5016921;28;20029;-81
2023/04/24 02:29:20;;;;;;;0.28;0.10;;;10.30;99.90;;;;;;5022479;28;20029;-80
2023/04/24 02:31:45;;;;;;;0.20;0.20;;;10.30;99.90;;;;;;5019772;28;20447;-80
2023/04/24 02:34:11;;;;;;;0.52;0.30;;;10.30;99.90;;;;;;5021218;28;20038;-79
2023/04/24 02:36:37;;;;;;;0.20;0.20;;;10.30;99.90;;;;;;5014926;28;20037;-80
2023/04/24 02:39:03;;;;;;;0.75;0.15;;;10.30;99.90;;;;;;5009536;28;20052;-81
2023/04/24 02:41:31;;;;;;;0.22;0.10;;;10.30;99.90;;;;;;5018382;28;20089;-82
2023/04/24 02:43:58;;;;;;;0.20;0.20;;;10.30;99.90;;;;;;5030817;28;20060;-78
2023/04/24 02:46:24;;;;;;;0.17;0.08;;;10.30;99.90;;;;;;5011533;28;20025;-78
2023/04/24 02:48:50;;;;;;;0.13;0.13;;;10.40;99.90;;;;;;5032904;28;20038;-78
2023/04/24 02:51:15;;;;;;;0.35;0.20;;;10.40;99.90;;;;;;5034230;28;20061;-78
2023/04/24 02:53:41;;;;;;;0.20;0.20;;;10.40;99.90;;;;;;5022118;28;20125;-80
2023/04/24 02:56:07;;;;;;;0.20;0.20;;;10.30;99.90;;;;;;5021602;28;20156;-78
2023/04/24 02:58:32;;;;;;;0.35;0.10;;;10.30;99.90;;;;;;5028200;28;20125;-79
2023/04/24 03:00:58;;;;;;;0.20;0.20;;;10.20;99.90;;;;;;5034599;28;20021;-77
2023/04/24 03:03:24;;;;;;;0.65;0.20;;;10.20;99.90;;;;;;5035078;28;20022;-79
2023/04/24 03:05:50;;;;;;;0.40;0.40;;;10.20;99.90;;;;;;5023250;28;20034;-81
2023/04/24 03:08:15;;;;;;;0.52;0.22;;;10.20;99.90;;;;;;5031864;28;20018;-78
2023/04/24 03:10:41;;;;;;;0.00;0.00;;;10.20;99.90;;;;;;5034880;28;20044;-79
2023/04/24 03:13:07;;;;;;;1.48;0.40;;;10.20;99.90;;;;;;5022187;28;20044;-79
2023/04/24 03:15:33;;;;;;;0.52;0.28;;;10.20;99.90;;;;;;5026608;28;20032;-80
2023/04/24 03:17:58;;;;;;;0.15;0.15;;;10.10;99.90;;;;;;5026632;28;20037;-78
2023/04/24 03:20:24;;;;;;;0.15;0.10;;;10.10;99.90;;;;;;5024774;28;20028;-80
2023/04/24 03:22:50;;;;;;;0.20;0.20;;;10.10;99.90;;;;;;5024621;28;20042;-80
2023/04/24 03:25:15;;;;;;;0.10;0.10;;;10.00;99.90;;;;;;5020161;28;20083;-81
2023/04/24 03:27:41;;;;;;;0.52;0.28;;;10.00;99.90;;;;;;5021201;28;20079;-80
2023/04/24 03:30:07;;;;;;;0.22;0.10;;;10.00;99.90;;;;;;5022570;28;20106;-80
2023/04/24 03:32:33;;;;;;;1.73;0.20;;;10.00;99.90;;;;;;5022181;28;20049;-80
2023/04/24 03:34:59;;;;;;;0.43;0.13;;;9.90;99.90;;;;;;5021892;28;20022;-80
2023/04/24 03:37:26;;;;;;;0.20;0.17;;;10.00;99.90;;;;;;5020109;28;20078;-80
2023/04/24 03:39:52;;;;;;;0.20;0.20;;;10.00;99.90;;;;;;5026506;28;20018;-79
2023/04/24 03:42:17;;;;;;;0.13;0.00;;;10.00;99.90;;;;;;5034721;28;20018;-78
2023/04/24 03:44:43;;;;;;;0.20;0.20;;;9.90;99.90;;;;;;5016458;28;20021;-78
2023/04/24 03:47:09;;;;;;;0.20;0.08;;;9.90;99.90;;;;;;5034342;28;20014;-79
2023/04/24 03:49:35;;;;;;;0.47;0.30;;;9.90;99.90;;;;;;5026585;28;20041;-80
2023/04/24 03:52:01;;;;;;;0.55;0.20;;;9.90;99.90;;;;;;5027636;28;20259;-79
2023/04/24 03:54:27;;;;;;;0.45;0.40;;;9.90;99.90;;;;;;5021757;28;20026;-80
2023/04/24 03:56:52;;;;;;;0.20;0.20;;;9.90;99.90;;;;;;5019960;28;20038;-80
2023/04/24 03:59:18;;;;;;;0.30;0.10;;;9.90;99.90;;;;;;5021264;28;20033;-81
2023/04/24 04:01:45;;;;;;;0.30;0.10;;;9.90;99.90;;;;;;5021309;28;20030;-81
2023/04/24 04:04:11;;;;;;;0.25;0.17;;;9.90;99.90;;;;;;5002886;28;20018;-80
2023/04/24 04:06:36;;;;;;;0.15;0.15;;;9.80;99.90;;;;;;5018399;28;20044;-80
2023/04/24 04:09:03;;;;;;;0.30;0.30;;;9.80;99.90;;;;;;5019638;28;20044;-79
2023/04/24 04:11:28;;;;;;;0.20;0.10;;;9.80;99.90;;;;;;5018717;28;20028;-80
2023/04/24 04:13:54;;;;;;;0.20;0.20;;;9.80;99.90;;;;;;5006705;28;20069;-80
2023/04/24 04:16:20;;;;;;;0.43;0.17;;;9.80;99.90;;;;;;5012342;28;20030;-78
2023/04/24 04:18:46;;;;;;;0.17;0.17;;;9.70;99.90;;;;;;5022716;28;20037;-80
2023/04/24 04:21:12;;;;;;;0.38;0.10;;;9.70;99.90;;;;;;5034412;28;20046;-78
2023/04/24 04:23:37;;;;;;;0.13;0.13;;;9.70;99.90;;;;;;5034328;28;20030;-79
2023/04/24 04:26:04;;;;;;;0.10;0.10;;;9.70;99.90;;;;;;5029257;28;20026;-78
2023/04/24 04:28:31;;;;;;;0.20;0.20;;;9.70;99.90;;;;;;5007551;28;20018;-78
2023/04/24 04:30:57;;;;;;;0.20;0.20;;;9.80;99.90;;;;;;5021787;28;20033;-76
2023/04/24 04:33:24;;;;;;;0.10;0.10;;;9.80;99.90;;;;;;5023925;28;20065;-77
2023/04/24 04:35:53;;;;;;;0.15;0.15;;;9.80;99.90;;;;;;5020182;28;20026;-79
2023/04/24 04:38:19;;;;;;;0.20;0.20;;;9.70;99.90;;;;;;5015268;28;20018;-77
2023/04/24 04:40:45;;;;;;;0.50;0.20;;;9.80;99.90;;;;;;5013637;28;20022;-77
2023/04/24 04:43:13;;;;;;;0.57;0.40;;;9.80;99.90;;;;;;5014590;28;20109;-77
2023/04/24 04:45:41;;;;;;;0.20;0.20;;;9.80;99.90;;;;;;5014883;28;20037;-79
2023/04/24 04:48:12;;;;;;;0.10;0.10;;;9.80;99.90;;;;;;5002633;28;20057;-79
2023/04/24 04:50:38;;;;;;;0.57;0.20;;;9.80;99.90;;;;;;5002728;28;20056;-78
2023/04/24 04:53:03;;;;;;;0.52;0.10;;;9.80;99.90;;;;;;5000879;28;20087;-77
2023/04/24 04:55:30;;;;;;;0.20;0.20;;;9.80;99.90;;;;;;5023169;28;20033;-77
2023/04/24 04:57:56;;;;;;;0.45;0.20;;;9.80;99.90;;;;;;5024590;28;20018;-77
2023/04/24 05:00:25;;;;;;;0.28;0.10;;;9.80;99.90;;;;;;5023525;28;20022;-77
2023/04/24 05:02:51;;;;;;;0.10;0.10;;;9.90;99.90;;;;;;5023031;28;20060;-77
2023/04/24 05:05:17;;;;;;;0.10;0.10;;;9.80;99.90;;;;;;5024037;28;20038;-76
2023/04/24 05:07:43;;;;;;;0.20;0.20;;;9.90;99.90;;;;;;5005564;28;20025;-76
2023/04/24 05:10:09;;;;;;;0.20;0.20;;;9.90;99.90;;;;;;5020321;28;20076;-77
2023/04/24 05:12:35;;;;;;;0.20;0.20;;;10.00;99.90;;;;;;5000014;28;20105;-77
2023/04/24 05:15:00;;;;;;;0.10;0.10;;;10.00;99.90;;;;;;5000527;28;20120;-78
2023/04/24 05:17:26;;;;;;;0.10;0.10;;;10.00;99.90;;;;;;5016639;28;20026;-76
2023/04/24 05:19:52;;;;;;;0.50;0.25;;;10.10;99.90;;;;;;5018592;28;20070;-76
2023/04/24 05:22:20;;;;;;;0.28;0.15;;;10.20;99.90;;;;;;5021239;28;20022;-78
2023/04/24 05:24:46;;;;;;;0.75;0.30;;;10.20;99.90;;;;;;5017475;28;20095;-78
2023/04/24 05:27:12;;;;;;;0.45;0.30;;;10.20;99.90;;;;;;5016733;28;20075;-77
2023/04/24 05:29:38;;;;;;;1.00;0.15;;;10.20;99.90;;;;;;4997757;28;20030;-76
2023/04/24 05:32:04;;;;;;;0.28;0.20;;;10.30;99.90;;;;;;5014185;28;20368;-77
2023/04/24 05:34:30;;;;;;;0.20;0.20;;;10.30;99.90;;;;;;5013617;28;20025;-77
2023/04/24 05:36:55;;;;;;;0.88;0.40;;;10.30;99.90;;;;;;5016162;28;20022;-77
2023/04/24 05:39:21;;;;;;;0.20;0.20;;;10.40;99.90;;;;;;4996813;28;20058;-78
2023/04/24 05:41:47;;;;;;;0.70;0.20;;;10.40;99.90;;;;;;5015733;28;20030;-77
2023/04/24 05:44:12;;;;;;;0.20;0.20;;;10.40;99.90;;;;;;5014313;28;20041;-77
2023/04/24 05:46:38;;;;;;;1.27;0.50;;;10.50;99.90;;;;;;5016730;28;20017;-77
2023/04/24 05:49:07;;;;;;;0.30;0.28;;;10.60;99.90;;;;;;5001125;28;20026;-77
2023/04/24 05:51:33;;;;;;;0.28;0.28;;;10.70;99.90;;;;;;5035846;28;20046;-77
2023/04/24 05:53:59;;;;;;;0.20;0.20;;;10.70;99.90;;;;;;5022057;28;20321;-77
2023/04/24 05:56:24;;;;;;;0.10;0.10;;;10.70;99.90;;;;;;5015755;28;20344;-77
2023/04/24 05:58:50;;;;;;;0.15;0.15;;;10.70;99.90;;;;;;5014993;28;20137;-77
2023/04/24 06:01:16;;;;;;;0.20;0.20;;;10.70;99.90;;;;;;5001044;28;20037;-77
2023/04/24 06:03:42;;;;;;;0.20;0.10;;;10.70;99.90;;;;;;5021207;28;20021;-75
2023/04/24 06:06:08;;;;;;;0.55;0.20;;;10.80;99.90;;;;;;5018210;28;20034;-78
2023/04/24 06:08:35;;;;;;;0.68;0.40;;;10.90;99.90;;;;;;4998459;28;20030;-79
2023/04/24 06:11:00;;;;;;;0.20;0.20;;;11.00;99.90;;;;;;5015631;28;20460;-76
2023/04/24 06:13:26;;;;;;;0.77;0.40;;;11.20;99.90;;;;;;5014587;28;20087;-78
2023/04/24 06:15:52;;;;;;;0.30;0.30;;;11.30;99.90;;;;;;4996418;28;20026;-78
2023/04/24 06:18:18;;;;;;;1.27;0.30;;;11.40;99.90;;;;;;5015380;28;20446;-78
2023/04/24 06:20:45;;;;;;;0.55;0.30;;;11.70;99.90;;;;;;5014917;28;20036;-76
2023/04/24 06:23:11;;;;;;;0.20;0.20;;;11.80;99.70;;;;;;5014122;28;20021;-77
2023/04/24 06:25:37;;;;;;;0.30;0.30;;;11.90;99.00;;;;;;5015347;28;20037;-77
2023/04/24 06:28:03;;;;;;;0.57;0.20;;;12.00;98.40;;;;;;5015966;28;20065;-78
2023/04/24 06:30:29;;;;;;;0.52;0.20;;;12.00;98.00;;;;;;4998221;28;20072;-79
2023/04/24 06:32:55;;;;;;;0.20;0.20;;;11.90;97.90;;;;;;4998166;28;20049;-76
2023/04/24 06:35:20;;;;;;;0.10;0.10;;;11.80;98.00;;;;;;5015487;28;20037;-77
2023/04/24 06:37:46;;;;;;;0.45;0.20;;;11.90;98.10;;;;;;5016008;28;20026;-78
2023/04/24 06:40:12;;;;;;;0.08;0.08;;;11.90;98.00;;;;;;5015433;28;20057;-77
2023/04/24 06:42:38;;;;;;;1.70;0.30;;;12.00;97.80;;;;;;4997080;28;20122;-78
2023/04/24 06:45:05;;;;;;;0.57;0.50;;;12.20;97.10;;;;;;4998434;28;20037;-78
2023/04/24 06:47:30;;;;;;;0.20;0.20;;;12.30;96.90;;;;;;5015493;28;20502;-77
2023/04/24 06:49:57;;;;;;;0.85;0.20;;;12.30;96.60;;;;;;5015629;28;20030;-78
2023/04/24 06:52:26;;;;;;;0.45;0.20;;;12.50;96.60;;;;;;5016210;28;20022;-80
2023/04/24 06:54:51;;;;;;;0.38;0.20;;;12.70;96.10;;;;;;4998524;28;20165;-78
2023/04/24 06:57:18;;;;;;;0.65;0.20;;;12.80;95.90;;;;;;5015682;28;20054;-78
2023/04/24 06:59:43;;;;;;;0.10;0.10;;;13.00;95.20;;;;;;4998103;28;20030;-77
2023/04/24 07:02:09;;;;;;;0.22;0.15;;;13.10;94.60;;;;;;5014503;28;20105;-78
2023/04/24 07:04:35;;;;;;;0.17;0.15;;;13.20;93.90;;;;;;5018081;28;20032;-77
2023/04/24 07:07:00;;;;;;;0.17;0.17;;;13.30;93.40;;;;;;5002723;28;20037;-79
2023/04/24 07:09:26;;;;;;;0.80;0.32;;;13.50;93.20;;;;;;5021801;28;20030;-77
2023/04/24 07:11:53;;;;;;;0.13;0.10;;;13.70;92.70;;;;;;5003987;28;20033;-77
2023/04/24 07:14:20;;;;;;;0.40;0.20;;;13.80;91.70;;;;;;5021589;28;20018;-77
2023/04/24 07:16:46;;;;;;;0.20;0.20;;;13.70;91.60;;;;;;5023581;28;20036;-76
2023/04/24 07:19:13;;;;;;;0.28;0.28;;;13.70;91.70;;;;;;5024153;28;20033;-79
2023/04/24 07:21:39;;;;;;;0.90;0.40;;;13.70;91.40;;;;;;5024300;28;20387;-77
2023/04/24 07:24:04;;;;;;;0.10;0.10;;;13.60;90.40;;;;;;5025187;28;20025;-76
2023/04/24 07:26:30;;;;;;;0.17;0.17;;;13.50;91.10;;;;;;5026059;28;20042;-79
2023/04/24 07:28:56;;;;;;;0.20;0.20;;;13.50;91.60;;;;;;5000891;28;20049;-77
2023/04/24 07:31:22;;;;;;;0.10;0.10;;;13.60;91.40;;;;;;5001135;28;20037;-77
2023/04/24 07:33:48;;;;;;;1.65;0.45;;;13.80;91.00;;;;;;5025072;28;20079;-78
2023/04/24 07:36:18;;;;;;;0.70;0.32;;;14.00;90.30;;;;;;5022976;28;20021;-78
2023/04/24 07:38:45;;;;;;;0.28;0.28;;;14.30;90.20;;;;;;5020468;28;20018;-77
2023/04/24 07:41:11;;;;;;;0.70;0.30;;;14.50;89.40;;;;;;5016366;28;20030;-77
2023/04/24 07:43:36;;;;;;;0.30;0.20;;;14.70;87.50;;;;;;5015570;28;20069;-78
2023/04/24 07:46:02;;;;;;;0.93;0.30;;;14.40;87.10;;;;;;5015098;28;20029;-78
2023/04/24 07:48:28;;;;;;;1.00;0.40;;;14.10;87.20;;;;;;5015721;28;20026;-78
2023/04/24 07:50:53;;;;;;;0.20;0.20;;;13.70;88.20;;;;;;5001571;28;20018;-78
2023/04/24 07:53:19;;;;;;;2.45;0.55;;;13.50;89.30;;;;;;5010109;28;20121;-78
2023/04/24 07:55:45;;;;;;;0.70;0.25;;;13.40;89.10;;;;;;5026553;28;20113;-76
2023/04/24 07:58:11;;;;;;;0.45;0.20;;;13.20;89.50;;;;;;4998978;28;20034;-78
2023/04/24 08:00:37;;;;;;;0.13;0.10;;;13.20;90.20;;;;;;4999068;28;20100;-79
2023/04/24 08:03:03;;;;;;;0.20;0.20;;;13.40;90.50;;;;;;5017852;28;20029;-77
2023/04/24 08:05:29;;;;;;;0.20;0.20;;;13.60;90.30;;;;;;5015409;28;20041;-76
2023/04/24 08:07:55;;;;;;;0.20;0.20;;;13.90;89.40;;;;;;5000059;28;20071;-79
2023/04/24 08:10:22;;;;;;;0.10;0.10;;;14.10;88.40;;;;;;4999110;28;20152;-78
2023/04/24 08:12:48;;;;;;;0.25;0.20;;;14.30;87.10;;;;;;5015431;28;20029;-78
2023/04/24 08:15:13;;;;;;;0.30;0.20;;;14.40;85.70;;;;;;5015611;28;20022;-78
2023/04/24 08:17:39;;;;;;;0.30;0.22;;;14.50;85.10;;;;;;4998808;28;20395;-80
2023/04/24 08:20:05;;;;;;;1.80;0.40;;;14.50;85.10;;;;;;5016424;28;20026;-77
2023/04/24 08:22:31;;;;;;;0.65;0.20;;;14.50;83.10;;;;;;5019247;28;20052;-78
2023/04/24 08:24:59;;;;;;;0.20;0.20;;;14.20;84.30;;;;;;5001941;28;20116;-78
2023/04/24 08:27:26;;;;;;;1.85;0.20;;;13.80;85.40;;;;;;5019547;28;20033;-77
2023/04/24 08:29:53;;;;;;;0.47;0.47;;;13.60;86.50;;;;;;5001487;28;20041;-77
2023/04/24 08:32:19;;;;;;;0.38;0.38;;;13.30;87.40;;;;;;5020464;28;20101;-77
2023/04/24 08:34:45;;;;;;;0.95;0.40;;;13.20;88.70;;;;;;5023225;28;20049;-77
2023/04/24 08:37:11;;;;;;;1.02;0.32;;;13.10;89.90;;;;;;5021835;28;20218;-79
2023/04/24 08:39:37;;;;;;;0.30;0.20;;;13.10;90.60;;;;;;5020753;28;20030;-78
2023/04/24 08:42:07;;;;;;;0.30;0.30;;;12.90;91.10;;;;;;5020050;28;20022;-77
2023/04/24 08:44:34;;;;;;;0.82;0.20;;;12.60;92.40;;;;;;5002009;28;20056;-77
2023/04/24 08:47:01;;;;;;;1.35;0.50;;;12.10;94.30;;;;;;5019416;28;20026;-78
2023/04/24 08:49:29;;;;;;;0.22;0.22;;;11.70;95.40;;;;;;5005558;28;20030;-79
2023/04/24 08:51:54;;;;;;;1.13;0.43;;;11.40;96.30;;;;;;5007657;28;20033;-80
2023/04/24 08:54:21;;;;;;;1.23;0.68;;;11.50;95.90;;;;;;5025303;28;20027;-78
2023/04/24 08:56:48;;;;;;;0.80;0.60;;;11.80;96.00;;;;;;5007701;28;20641;-77
2023/04/24 08:59:17;;;;;;;1.63;0.60;;;12.10;94.20;;;;;;5034569;28;20018;-77
2023/04/24 09:01:47;;;;;;;2.00;0.60;;;12.10;93.20;;;;;;5035283;28;20032;-77
2023/04/24 09:04:15;;;;;;;1.40;0.80;;;12.00;92.90;;;;;;5036648;28;20026;-76
2023/04/24 09:06:40;;;;;;;0.40;0.40;;;11.80;92.80;;;;;;5006882;28;20026;-77
2023/04/24 09:09:08;;;;;;;2.25;0.90;;;11.70;92.90;;;;;;5024914;28;20459;-79
2023/04/24 09:11:34;;;;;;;1.35;0.60;;;11.60;92.80;;;;;;5021096;28;20041;-78
2023/04/24 09:14:00;;;;;;;2.45;0.60;;;11.60;91.10;;;;;;5007491;28;20032;-80
2023/04/24 09:16:26;;;;;;;1.63;0.47;;;11.60;90.70;;;;;;5036983;23;20065;-76
2023/04/24 09:18:52;;;;;;;1.60;0.73;;;11.60;90.00;;;;;;5054939;28;20455;-77
2023/04/24 09:21:21;;;;;;;1.98;0.40;;;11.70;90.70;;;;;;5057349;28;20064;-75
2023/04/24 09:23:46;;;;;;;0.45;0.45;;;12.00;91.00;;;;;;5058195;28;20359;-75
2023/04/24 09:26:14;;;;;;;1.38;0.63;;;12.40;90.60;;;;;;5067905;28;20075;-76
2023/04/24 09:28:41;;;;;;;0.55;0.50;;;12.60;89.50;;;;;;5076057;28;20086;-75
2023/04/24 09:31:07;;;;;;;1.90;0.55;;;12.80;88.70;;;;;;5067183;28;20025;-75
2023/04/24 09:33:34;;;;;;;0.98;0.47;;;13.00;87.80;;;;;;5077130;28;20028;-76
2023/04/24 09:36:00;;;;;;;1.98;0.45;;;13.10;83.70;;;;;;5058407;28;20051;-76
2023/04/24 09:38:38;;;;;;;1.38;0.60;;;13.10;83.80;;;;;;5076769;28;20089;-75
2023/04/24 09:41:08;;;;;;;1.02;0.70;;;13.10;84.90;;;;;;5078543;28;20055;-75
2023/04/24 09:43:34;;;;;;;1.67;0.68;;;13.40;83.00;;;;;;5078000;28;20028;-75
2023/04/24 09:46:06;;;;;;;1.88;0.70;;;13.60;82.20;;;;;;5076534;28;20028;-76
2023/04/24 09:48:34;;;;;;;1.40;0.50;;;13.80;81.80;;;;;;5076788;28;20435;-76
2023/04/24 09:51:01;;;;;;;1.25;0.60;;;14.10;81.10;;;;;;5077027;28;20024;-76
2023/04/24 09:53:27;;;;;;;2.22;0.80;;;14.30;78.90;;;;;;5076632;28;20051;-76
2023/04/24 09:55:53;;;;;;;0.68;0.68;;;14.50;75.80;;;;;;5078066;28;20480;-75
2023/04/24 09:58:26;;;;;;;1.98;1.23;;;14.40;75.70;;;;;;5077101;28;20025;-76
2023/04/24 10:00:54;;;;;;;1.00;0.65;;;14.30;76.40;;;;;;5058965;28;20092;-76
2023/04/24 10:03:20;;;;;;;0.60;0.60;;;14.40;76.30;;;;;;5077275;28;20029;-76
2023/04/24 10:05:47;;;;;;;0.43;0.43;;;14.40;75.50;;;;;;5074459;28;20085;-75
2023/04/24 10:08:13;;;;;;;1.63;0.40;;;14.60;76.50;;;;;;5058053;28;20118;-75
2023/04/24 10:10:41;;;;;;;1.38;0.70;;;14.80;76.80;;;;;;5057307;28;20040;-75
2023/04/24 10:13:10;;;;;;;0.50;0.50;;;15.10;76.00;;;;;;5057827;28;20036;-76
2023/04/24 10:15:36;;;;;;;1.33;0.70;;;15.30;74.80;;;;;;5038385;28;20037;-76
2023/04/24 10:18:03;;;;;;;0.82;0.75;;;15.50;72.10;;;;;;5076326;28;20009;-74
2023/04/24 10:20:30;;;;;;;0.95;0.60;;;15.30;72.30;;;;;;5077309;28;20020;-76
2023/04/24 10:22:58;;;;;;;1.55;0.80;;;15.20;73.70;;;;;;5058430;28;20120;-76
2023/04/24 10:25:26;;;;;;;1.13;0.70;;;15.00;74.60;;;;;;5055022;28;20021;-75
2023/04/24 10:27:53;;;;;;;0.65;0.60;;;15.00;74.10;;;;;;5055803;28;20044;-75
2023/04/24 10:30:19;;;;;;;0.98;0.70;;;14.90;73.50;;;;;;5058641;28;20025;-76
2023/04/24 10:32:46;;;;;;;0.82;0.60;;;14.90;74.40;;;;;;5058996;28;20017;-75
2023/04/24 10:35:14;;;;;;;1.08;0.50;;;15.20;74.10;;;;;;5040012;28;20047;-75
2023/04/24 10:37:46;;;;;;;1.95;0.68;;;15.50;72.50;;;;;;5042295;28;20033;-75
2023/04/24 10:40:16;;;;;;;2.08;1.20;;;15.80;71.90;;;;;;5060527;28;20033;-75
2023/04/24 10:42:46;;;;;;;0.82;0.50;;;16.00;70.10;;;;;;5041534;28;20033;-75
2023/04/24 10:45:21;;;;;;;1.10;0.80;;;16.00;69.80;;;;;;5056886;28;20470;-75
2023/04/24 10:48:02;;;;;;;1.00;0.82;;;15.70;70.00;;;;;;5073480;28;20085;-74
2023/04/24 10:50:30;;;;;;;0.77;0.77;;;15.30;70.60;;;;;;5076823;28;20096;-77
2023/04/24 10:53:06;;;;;;;1.92;0.63;;;14.80;72.00;;;;;;5077635;28;20047;-77
2023/04/24 10:56:05;;;;;;;2.10;1.30;;;14.40;73.50;;;;;;5063765;28;20029;-76
2023/04/24 10:58:44;;;;;;;0.60;0.60;;;14.00;76.70;;;;;;5038097;28;20037;-76
2023/04/24 11:01:23;;;;;;;3.05;0.70;;;12.90;83.50;;;;;;5057402;28;20040;-76
2023/04/24 11:03:54;;;;;;;1.95;0.80;;;11.90;89.30;;;;;;5057234;28;20028;-75
2023/04/24 11:06:32;;;;;;;0.45;0.40;;;11.30;91.80;;;;;;5057232;28;20024;-75
2023/04/24 11:09:05;;;;;;;0.60;0.60;;;11.00;93.90;;;;;;5056618;28;20393;-76
2023/04/24 11:11:31;;;;;;;2.17;0.60;;;11.20;94.60;;;;;;5057105;28;20013;-76
2023/04/24 11:13:59;;;;;;;0.45;0.40;;;11.50;95.60;;;;;;5056352;28;20025;-75
2023/04/24 11:16:33;;;;;;;1.90;0.60;;;11.90;95.60;;;;;;5044014;28;20032;-75
2023/04/24 11:19:28;;;;;;;0.75;0.40;;;12.40;94.60;;;;;;5076356;28;20020;-76
2023/04/24 11:22:01;;;;;;;0.40;0.40;;;12.90;92.70;;;;;;5037308;28;20514;-75
2023/04/24 11:24:37;;;;;;;1.60;0.60;;;13.20;91.80;;;;;;5076705;28;20048;-77
2023/04/24 11:27:06;;;;;;;0.75;0.70;;;13.60;90.70;;;;;;5075773;28;20023;-77
2023/04/24 11:30:02;;;;;;;0.50;0.50;;;14.10;88.80;;;;;;5074395;28;20484;-77
2023/04/24 11:32:41;;;;;;;0.68;0.68;;;14.40;83.80;;;;;;5053794;28;20444;-76
2023/04/24 11:35:16;;;;;;;2.10;0.60;;;14.50;83.60;;;;;;5055719;28;20025;-76
2023/04/24 11:37:48;;;;;;;0.57;0.57;;;14.80;84.50;;;;;;5057215;28;20079;-77
2023/04/24 11:40:15;;;;;;;1.42;0.80;;;15.30;84.00;;;;;;5055233;28;20473;-75
2023/04/24 11:42:46;;;;;;;1.90;0.90;;;15.60;80.30;;;;;;5047887;28;20045;-73
2023/04/24 11:45:17;;;;;;;2.08;0.70;;;15.50;78.20;;;;;;5072491;28;20473;-75
2023/04/24 11:47:44;;;;;;;3.00;0.80;;;15.30;79.20;;;;;;5039745;28;20041;-75
2023/04/24 11:50:13;;;;;;;2.75;0.60;;;15.10;77.70;;;;;;5065380;28;20017;-75
2023/04/24 11:52:40;;;;;;;0.90;0.63;;;14.90;77.50;;;;;;5076514;28;20495;-74
2023/04/24 11:55:25;;;;;;;0.85;0.60;;;14.80;78.40;;;;;;5075061;28;20488;-75
2023/04/24 11:57:56;;;;;;;1.27;0.50;;;14.90;78.20;;;;;;5080006;28;20427;-75
2023/04/24 12:00:27;;;;;;;1.13;0.50;;;15.00;77.10;;;;;;5080085;28;20020;-73
2023/04/24 12:03:11;;;;;;;0.50;0.50;;;15.10;76.00;;;;;;5061923;28;20063;-75
2023/04/24 12:05:38;;;;;;;1.52;0.80;;;15.10;75.30;;;;;;5080501;28;20043;-75
2023/04/24 12:08:04;;;;;;;1.23;0.55;;;15.10;75.90;;;;;;5081000;28;20032;-76
2023/04/24 12:10:32;;;;;;;0.43;0.43;;;15.00;75.10;;;;;;5079811;28;20032;-77
2023/04/24 12:12:58;;;;;;;0.98;0.50;;;15.00;76.00;;;;;;5079854;28;20039;-77
2023/04/24 12:15:24;;;;;;;0.60;0.60;;;15.10;73.70;;;;;;5062669;28;20035;-76
2023/04/24 12:17:54;;;;;;;0.73;0.65;;;15.10;74.00;;;;;;5087204;28;20028;-75
2023/04/24 12:20:31;;;;;;;1.30;0.52;;;15.00;72.60;;;;;;5096148;28;20020;-75
2023/04/24 12:22:58;;;;;;;0.85;0.57;;;14.80;74.00;;;;;;5095898;28;20039;-75
2023/04/24 12:25:26;;;;;;;1.38;0.50;;;14.70;74.00;;;;;;5097518;28;20032;-76
2023/04/24 12:28:04;;;;;;;0.98;0.57;;;14.80;73.90;;;;;;5098640;28;20060;-75
2023/04/24 12:30:32;;;;;;;1.23;0.88;;;14.80;74.30;;;;;;5098596;28;20020;-76
2023/04/24 12:33:00;;;;;;;0.90;0.68;;;14.90;72.40;;;;;;5097470;28;20009;-76
2023/04/24 12:35:28;;;;;;;0.82;0.82;;;14.90;72.00;;;;;;5070157;28;20036;-75
2023/04/24 12:37:54;;;;;;;1.55;0.70;;;15.10;69.60;;;;;;5059491;28;20020;-76
2023/04/24 12:40:21;;;;;;;0.88;0.70;;;15.20;68.50;;;;;;5040713;28;20039;-75
2023/04/24 12:42:51;;;;;;;3.55;0.90;;;15.20;68.40;;;;;;5058509;28;20084;-76
2023/04/24 12:45:18;;;;;;;0.65;0.65;;;15.50;67.90;;;;;;5058540;28;20063;-75
2023/04/24 12:47:46;;;;;;;0.50;0.50;;;15.80;66.70;;;;;;5076772;28;20060;-76